createdAt,value
2019-05-21T00:00:02.010Z,47.07
2019-05-21T00:02:30.437Z,41.37
2019-05-21T00:04:58.867Z,45.07
2019-05-21T00:07:27.307Z,49.67
2019-05-21T00:09:55.807Z,46.83
2019-05-21T00:12:24.301Z,47.43
2019-05-21T00:14:52.766Z,50.63
2019-05-21T00:17:21.194Z,51.33
2019-05-21T00:19:49.630Z,45.43
2019-05-21T00:22:18.061Z,49.93
2019-05-21T00:24:46.531Z,51.93
2019-05-21T00:27:15.037Z,49.63
2019-05-21T00:30:19.474Z,48.57
2019-05-21T00:33:24.107Z,48.77
2019-05-21T00:36:30.234Z,44.93
2019-05-21T00:39:34.914Z,47.20
2019-05-21T00:42:03.860Z,45.87
2019-05-21T00:44:35.337Z,49.10
2019-05-21T00:47:05.691Z,55.63
2019-05-21T00:49:34.186Z,50.67
2019-05-21T00:52:07.928Z,50.83
2019-05-21T00:54:32.918Z,55.70
2019-05-21T00:57:01.337Z,52.13
2019-05-21T00:59:29.784Z,51.83
2019-05-21T01:01:58.357Z,51.57
2019-05-21T01:04:26.777Z,56.43
2019-05-21T01:06:55.283Z,53.90
2019-05-21T01:09:23.746Z,50.33
2019-05-21T01:11:52.244Z,54.50
2019-05-21T01:14:20.761Z,57.53
2019-05-21T01:16:49.199Z,55.80
2019-05-21T01:19:17.618Z,49.93
2019-05-21T01:21:46.057Z,49.70
2019-05-21T01:24:14.508Z,55.47
2019-05-21T01:26:42.961Z,52.33
2019-05-21T01:29:11.486Z,56.13
2019-05-21T01:31:39.928Z,51.47
2019-05-21T01:34:11.285Z,54.20
2019-05-21T01:36:38.865Z,57.03
2019-05-21T01:39:07.290Z,51.73
2019-05-21T01:41:35.718Z,51.17
2019-05-21T01:44:04.297Z,53.50
2019-05-21T01:46:32.730Z,53.30
2019-05-21T01:49:01.163Z,53.30
2019-05-21T01:51:29.610Z,70.90
2019-05-21T01:53:58.054Z,55.00
2019-05-21T01:56:26.467Z,56.00
2019-05-21T01:58:54.909Z,59.47
2019-05-21T02:01:23.368Z,64.60
2019-05-21T02:03:51.801Z,60.77
2019-05-21T02:06:20.518Z,63.70
2019-05-21T02:08:48.953Z,70.20
2019-05-21T02:11:17.389Z,64.93
2019-05-21T02:13:45.899Z,59.43
2019-05-21T02:16:14.399Z,60.43
2019-05-21T02:18:42.892Z,61.67
2019-05-21T02:21:11.613Z,64.17
2019-05-21T02:23:40.025Z,69.80
2019-05-21T02:26:08.472Z,65.10
2019-05-21T02:28:36.899Z,62.40
2019-05-21T02:31:05.480Z,59.33
2019-05-21T02:33:33.900Z,67.93
2019-05-21T02:36:02.324Z,63.87
2019-05-21T02:38:30.746Z,66.03
2019-05-21T02:40:59.262Z,61.80
2019-05-21T02:43:27.802Z,69.90
2019-05-21T02:45:56.259Z,69.07
2019-05-21T02:48:24.706Z,64.60
2019-05-21T02:50:53.121Z,61.70
2019-05-21T02:53:21.567Z,62.03
2019-05-21T02:55:49.989Z,63.90
2019-05-21T02:58:18.440Z,65.33
2019-05-21T03:00:48.512Z,69.90
2019-05-21T03:03:18.570Z,62.23
2019-05-21T03:05:47.003Z,63.27
2019-05-21T03:08:15.623Z,64.20
2019-05-21T03:10:44.038Z,66.83
2019-05-21T03:13:12.545Z,65.00
2019-05-21T03:15:40.964Z,63.17
2019-05-21T03:18:09.371Z,64.70
2019-05-21T03:20:37.826Z,65.13
2019-05-21T03:23:06.341Z,63.43
2019-05-21T03:25:34.743Z,62.80
2019-05-21T03:28:03.202Z,65.53
2019-05-21T03:30:31.701Z,60.70
2019-05-21T03:33:00.199Z,66.07
2019-05-21T03:35:28.643Z,59.00
2019-05-21T03:37:57.081Z,59.23
2019-05-21T03:40:25.543Z,68.33
2019-05-21T03:42:54.260Z,62.10
2019-05-21T03:45:22.658Z,61.37
2019-05-21T03:47:51.181Z,60.33
2019-05-21T03:50:19.652Z,54.97
2019-05-21T03:52:48.085Z,60.73
2019-05-21T03:55:16.548Z,59.50
2019-05-21T03:57:44.976Z,63.97
2019-05-21T04:00:14.151Z,58.60
2019-05-21T04:02:42.602Z,60.43
2019-05-21T04:05:11.361Z,59.47
2019-05-21T04:07:39.885Z,60.63
2019-05-21T04:10:17.357Z,57.73
2019-05-21T04:12:47.621Z,60.77
2019-05-21T04:15:17.770Z,60.63
2019-05-21T04:18:02.892Z,67.30
2019-05-21T04:20:31.301Z,63.10
2019-05-21T04:22:59.822Z,66.70
2019-05-21T04:25:28.259Z,58.67
2019-05-21T04:27:56.669Z,69.80
2019-05-21T04:30:25.128Z,70.93
2019-05-21T04:32:53.544Z,72.47
2019-05-21T04:35:21.979Z,74.70
2019-05-21T04:37:50.567Z,68.10
2019-05-21T04:40:19.060Z,68.23
2019-05-21T04:42:47.546Z,70.70
2019-05-21T04:45:16.154Z,68.03
2019-05-21T04:47:44.585Z,68.37
2019-05-21T04:50:13.091Z,67.17
2019-05-21T04:52:41.544Z,71.80
2019-05-21T04:55:10.530Z,69.40
2019-05-21T04:57:39.004Z,62.60
2019-05-21T05:00:08.614Z,71.23
2019-05-21T05:02:36.984Z,61.53
2019-05-21T05:05:06.267Z,72.27
2019-05-21T05:07:34.767Z,64.70
2019-05-21T05:10:03.246Z,72.43
2019-05-21T05:12:31.701Z,64.33
2019-05-21T05:15:00.121Z,71.27
2019-05-21T05:17:28.877Z,68.77
2019-05-21T05:19:57.302Z,66.43
2019-05-21T05:22:25.750Z,72.03
2019-05-21T05:24:54.260Z,77.50
2019-05-21T05:27:22.642Z,64.40
2019-05-21T05:29:51.076Z,69.30
2019-05-21T05:32:19.492Z,64.53
2019-05-21T05:34:47.937Z,67.50
2019-05-21T05:37:16.389Z,69.37
2019-05-21T05:39:44.822Z,64.83
2019-05-21T05:42:13.268Z,67.83
2019-05-21T05:44:41.704Z,63.87
2019-05-21T05:47:10.146Z,66.10
2019-05-21T05:49:42.830Z,62.57
2019-05-21T05:52:11.286Z,62.47
2019-05-21T05:54:39.868Z,65.90
2019-05-21T05:57:08.343Z,74.53
2019-05-21T05:59:36.754Z,68.87
2019-05-21T06:02:05.363Z,61.10
2019-05-21T06:04:33.806Z,63.47
2019-05-21T06:07:02.332Z,65.73
2019-05-21T06:09:30.827Z,62.07
2019-05-21T06:11:59.315Z,58.60
2019-05-21T06:14:27.779Z,56.43
2019-05-21T06:16:56.256Z,48.90
2019-05-21T06:19:24.692Z,54.37
2019-05-21T06:21:53.207Z,49.37
2019-05-21T06:24:21.623Z,48.50
2019-05-21T06:26:50.194Z,43.17
2019-05-21T06:29:19.085Z,39.60
2019-05-21T06:31:47.530Z,37.70
2019-05-21T06:34:15.972Z,30.83
2019-05-21T06:36:44.407Z,30.00
2019-05-21T06:39:12.846Z,31.57
2019-05-21T06:41:41.294Z,31.87
2019-05-21T06:44:09.729Z,31.80
2019-05-21T06:46:38.166Z,30.80
2019-05-21T06:49:06.675Z,26.73
2019-05-21T06:51:35.159Z,27.53
2019-05-21T06:54:03.597Z,23.27
2019-05-21T06:56:32.046Z,22.93
2019-05-21T06:59:00.482Z,22.67
2019-05-21T07:01:29.744Z,24.20
2019-05-21T07:03:58.446Z,22.53
2019-05-21T07:06:26.926Z,20.63
2019-05-21T07:08:55.458Z,24.67
2019-05-21T07:11:23.892Z,21.47
2019-05-21T07:13:52.407Z,19.80
2019-05-21T07:16:20.835Z,19.87
2019-05-21T07:18:49.269Z,20.70
2019-05-21T07:21:17.713Z,17.20
2019-05-21T07:23:46.133Z,17.33
2019-05-21T07:26:14.592Z,17.83
2019-05-21T07:28:43.067Z,12.27
2019-05-21T07:31:11.683Z,15.07
2019-05-21T07:33:40.190Z,11.37
2019-05-21T07:36:08.703Z,15.60
2019-05-21T07:38:51.801Z,14.30
2019-05-21T07:41:07.430Z,12.40
2019-05-21T07:43:35.975Z,13.33
2019-05-21T07:46:04.446Z,16.67
2019-05-21T07:48:33.082Z,12.67
2019-05-21T07:51:01.489Z,12.37
2019-05-21T07:53:29.924Z,16.00
2019-05-21T07:55:58.360Z,10.93
2019-05-21T07:58:26.784Z,13.10
2019-05-21T08:00:55.232Z,10.60
2019-05-21T08:03:23.755Z,11.53
2019-05-21T08:05:52.168Z,16.37
2019-05-21T08:08:20.610Z,13.10
2019-05-21T08:10:49.029Z,11.97
2019-05-21T08:13:17.467Z,11.20
2019-05-21T08:15:45.918Z,10.43
2019-05-21T08:18:14.331Z,12.13
2019-05-21T08:20:42.770Z,11.83
2019-05-21T08:23:11.198Z,19.30
2019-05-21T08:25:39.610Z,20.67
2019-05-21T08:28:08.047Z,27.07
2019-05-21T08:30:36.573Z,27.43
2019-05-21T08:33:05.465Z,24.77
2019-05-21T08:35:33.964Z,25.87
2019-05-21T08:38:06.329Z,25.10
2019-05-21T08:40:32.631Z,23.93
2019-05-21T08:43:01.119Z,22.77
2019-05-21T08:45:29.614Z,28.83
2019-05-21T08:47:58.214Z,23.93
2019-05-21T08:50:26.669Z,25.97
2019-05-21T08:52:55.170Z,25.80
2019-05-21T08:55:23.624Z,24.33
2019-05-21T08:58:06.299Z,19.00
2019-05-21T09:00:22.941Z,21.50
2019-05-21T09:02:51.565Z,20.17
2019-05-21T09:05:20.555Z,24.30
2019-05-21T09:07:53.269Z,21.67
2019-05-21T09:10:19.395Z,23.50
2019-05-21T09:12:47.802Z,23.47
2019-05-21T09:15:16.654Z,18.63
2019-05-21T09:17:45.101Z,19.90
2019-05-21T09:20:14.920Z,18.73
2019-05-21T09:22:43.553Z,22.07
2019-05-21T09:25:12.911Z,17.73
2019-05-21T09:27:41.460Z,19.87
2019-05-21T09:30:11.545Z,19.30
2019-05-21T09:32:40.003Z,21.93
2019-05-21T09:35:11.030Z,15.10
2019-05-21T09:37:39.483Z,18.20
2019-05-21T09:40:09.938Z,15.77
2019-05-21T09:42:38.533Z,15.20
2019-05-21T09:45:08.551Z,15.70
2019-05-21T09:47:37.123Z,17.53
2019-05-21T09:50:11.222Z,19.37
2019-05-21T09:52:39.975Z,17.77
2019-05-21T09:55:09.422Z,20.63
2019-05-21T09:57:45.660Z,19.43
2019-05-21T10:00:35.931Z,23.73
2019-05-21T10:03:06.171Z,20.60
2019-05-21T10:05:34.610Z,25.70
2019-05-21T10:08:03.459Z,23.70
2019-05-21T10:10:31.945Z,22.37
2019-05-21T10:13:00.369Z,19.20
2019-05-21T10:15:28.785Z,21.33
2019-05-21T10:17:57.233Z,21.63
2019-05-21T10:20:25.660Z,17.23
2019-05-21T10:22:54.093Z,19.00
2019-05-21T10:25:22.550Z,19.87
2019-05-21T10:27:51.014Z,15.93
2019-05-21T10:30:19.664Z,17.20
2019-05-21T10:32:48.088Z,16.27
2019-05-21T10:35:16.505Z,18.27
2019-05-21T10:37:54.440Z,16.33
2019-05-21T10:40:15.737Z,15.53
2019-05-21T10:42:44.327Z,17.00
2019-05-21T10:45:13.574Z,15.10
2019-05-21T10:47:42.028Z,15.70
2019-05-21T10:50:10.619Z,19.30
2019-05-21T10:52:39.026Z,16.10
2019-05-21T10:55:09.229Z,19.47
2019-05-21T10:57:37.729Z,18.10
2019-05-21T11:00:10.435Z,17.20
2019-05-21T11:02:40.945Z,16.57
2019-05-21T11:05:11.756Z,17.73
2019-05-21T11:07:40.186Z,16.20
2019-05-21T11:10:10.215Z,15.17
2019-05-21T11:12:38.683Z,16.80
2019-05-21T11:15:08.600Z,17.23
2019-05-21T11:17:53.288Z,18.70
2019-05-21T11:20:07.779Z,19.17
2019-05-21T11:22:36.213Z,16.90
2019-05-21T11:25:06.995Z,17.47
2019-05-21T11:27:35.402Z,18.50
2019-05-21T11:30:05.717Z,20.60
2019-05-21T11:32:34.224Z,20.67
2019-05-21T11:35:02.718Z,15.57
2019-05-21T11:37:31.205Z,17.50
2019-05-21T11:39:59.645Z,19.33
2019-05-21T11:42:28.125Z,15.97
2019-05-21T11:44:56.582Z,14.43
2019-05-21T11:47:25.015Z,15.27
2019-05-21T11:49:53.459Z,13.07
2019-05-21T11:52:21.953Z,12.23
2019-05-21T11:54:50.383Z,11.93
2019-05-21T11:57:18.837Z,14.43
2019-05-21T11:59:47.344Z,13.30
2019-05-21T12:02:15.776Z,13.93
2019-05-21T12:04:44.214Z,12.33
2019-05-21T12:07:12.664Z,8.83
2019-05-21T12:09:41.137Z,12.83
2019-05-21T12:12:09.570Z,7.60
2019-05-21T12:14:37.995Z,6.27
2019-05-21T12:17:06.573Z,5.43
2019-05-21T12:19:35.116Z,8.40
2019-05-21T12:22:03.625Z,4.47
2019-05-21T12:24:32.221Z,4.20
2019-05-21T12:27:00.667Z,3.93
2019-05-21T12:29:29.202Z,4.07
2019-05-21T12:31:57.648Z,3.10
2019-05-21T12:34:26.063Z,4.30
2019-05-21T12:36:54.514Z,3.30
2019-05-21T12:39:22.918Z,3.23
2019-05-21T12:41:51.348Z,5.33
2019-05-21T12:44:19.791Z,3.07
2019-05-21T12:46:48.215Z,3.30
2019-05-21T12:49:16.728Z,5.03
2019-05-21T12:51:45.136Z,2.93
2019-05-21T12:54:13.575Z,4.37
2019-05-21T12:56:42.006Z,3.47
2019-05-21T12:59:10.429Z,4.67
2019-05-21T13:01:38.878Z,5.00
2019-05-21T13:04:07.373Z,4.63
2019-05-21T13:06:36.017Z,6.53
2019-05-21T13:09:08.150Z,5.10
2019-05-21T13:11:36.984Z,8.00
2019-05-21T13:14:05.747Z,6.70
2019-05-21T13:16:34.276Z,6.30
2019-05-21T13:19:02.738Z,6.47
2019-05-21T13:21:31.256Z,7.80
2019-05-21T13:23:59.674Z,9.90
2019-05-21T13:26:28.153Z,6.73
2019-05-21T13:28:56.650Z,6.77
2019-05-21T13:31:25.080Z,8.97
2019-05-21T13:33:53.509Z,6.60
2019-05-21T13:36:23.447Z,6.50
2019-05-21T13:38:51.865Z,7.10
2019-05-21T13:41:20.469Z,7.00
2019-05-21T13:43:48.903Z,8.50
2019-05-21T13:46:17.401Z,7.03
2019-05-21T13:48:47.016Z,8.20
2019-05-21T13:51:15.930Z,7.80
2019-05-21T13:53:44.357Z,8.30
2019-05-21T13:56:12.842Z,6.70
2019-05-21T13:58:41.269Z,8.97
2019-05-21T14:01:10.831Z,6.93
2019-05-21T14:03:39.258Z,6.13
2019-05-21T14:06:07.756Z,7.60
2019-05-21T14:08:36.244Z,8.13
2019-05-21T14:11:05.539Z,6.73
2019-05-21T14:13:34.024Z,6.90
2019-05-21T14:16:02.463Z,11.97
2019-05-21T14:18:30.970Z,7.47
2019-05-21T14:20:59.389Z,11.73
2019-05-21T14:23:27.815Z,10.60
2019-05-21T14:25:56.244Z,8.03
2019-05-21T14:28:24.670Z,10.57
2019-05-21T14:30:53.130Z,11.93
2019-05-21T14:33:21.571Z,14.00
2019-05-21T14:35:50.129Z,15.63
2019-05-21T14:38:18.570Z,15.07
2019-05-21T14:40:46.998Z,18.83
2019-05-21T14:43:15.612Z,23.00
2019-05-21T14:45:44.163Z,18.67
2019-05-21T14:48:12.623Z,16.97
2019-05-21T14:50:41.072Z,19.93
2019-05-21T14:53:09.579Z,18.33
2019-05-21T14:55:38.032Z,19.00
2019-05-21T14:58:06.568Z,21.90
2019-05-21T15:00:36.765Z,19.17
2019-05-21T15:03:06.404Z,22.93
2019-05-21T15:05:35.668Z,20.33
2019-05-21T15:08:05.359Z,19.13
2019-05-21T15:10:47.155Z,17.47
2019-05-21T15:13:06.129Z,20.53
2019-05-21T15:15:35.533Z,19.70
2019-05-21T15:18:04.050Z,21.03
2019-05-21T15:20:37.187Z,20.47
2019-05-21T15:23:05.742Z,20.00
2019-05-21T15:25:36.829Z,16.93
2019-05-21T15:28:05.300Z,19.37
2019-05-21T15:30:33.734Z,22.07
2019-05-21T15:33:02.192Z,19.57
2019-05-21T15:35:30.615Z,21.53
2019-05-21T15:37:59.422Z,22.03
2019-05-21T15:40:27.934Z,23.80
2019-05-21T15:42:56.360Z,24.67
2019-05-21T15:45:25.839Z,25.27
2019-05-21T15:47:54.264Z,25.83
2019-05-21T15:50:22.700Z,22.97
2019-05-21T15:52:51.178Z,26.43
2019-05-21T15:55:19.627Z,26.03
2019-05-21T15:57:48.067Z,26.70
2019-05-21T16:00:17.117Z,22.97
2019-05-21T16:02:45.535Z,26.07
2019-05-21T16:05:14.117Z,24.57
2019-05-21T16:07:42.543Z,28.60
2019-05-21T16:10:11.302Z,24.43
2019-05-21T16:12:39.749Z,23.50
2019-05-21T16:15:08.629Z,25.97
2019-05-21T16:17:37.057Z,28.87
2019-05-21T16:20:09.658Z,29.13
2019-05-21T16:22:38.100Z,26.80
2019-05-21T16:25:07.730Z,31.17
2019-05-21T16:27:36.104Z,28.43
2019-05-21T16:30:07.823Z,31.13
2019-05-21T16:32:36.409Z,28.00
2019-05-21T16:35:07.562Z,29.17
2019-05-21T16:37:36.184Z,25.17
2019-05-21T16:40:07.140Z,30.10
2019-05-21T16:42:35.657Z,26.97
2019-05-21T16:45:06.773Z,28.27
2019-05-21T16:47:44.329Z,29.93
2019-05-21T16:50:07.454Z,28.17
2019-05-21T16:52:35.886Z,32.13
2019-05-21T16:55:06.965Z,29.60
2019-05-21T16:57:35.393Z,31.00
2019-05-21T17:00:06.933Z,30.13
2019-05-21T17:02:35.368Z,35.17
2019-05-21T17:05:06.122Z,28.93
2019-05-21T17:07:34.559Z,30.03
2019-05-21T17:10:03.071Z,30.67
2019-05-21T17:12:31.585Z,29.93
2019-05-21T17:15:00.012Z,31.70
2019-05-21T17:17:28.469Z,29.43
2019-05-21T17:19:57.089Z,29.37
2019-05-21T17:22:25.525Z,27.50
2019-05-21T17:24:54.155Z,30.87
2019-05-21T17:27:22.616Z,25.87
2019-05-21T17:29:51.154Z,24.17
2019-05-21T17:32:19.585Z,31.53
2019-05-21T17:34:48.031Z,24.67
2019-05-21T17:37:16.541Z,20.40
2019-05-21T17:39:44.978Z,20.97
2019-05-21T17:42:15.809Z,23.13
2019-05-21T17:44:43.765Z,19.93
2019-05-21T17:47:12.199Z,17.67
2019-05-21T17:49:40.638Z,20.73
2019-05-21T17:52:09.222Z,23.43
2019-05-21T17:54:37.681Z,16.90
2019-05-21T17:57:09.126Z,19.07
2019-05-21T17:59:37.553Z,17.40
2019-05-21T18:02:08.266Z,17.00
2019-05-21T18:04:37.214Z,18.73
2019-05-21T18:07:06.218Z,17.80
2019-05-21T18:09:34.990Z,17.50
2019-05-21T18:12:05.049Z,16.50
2019-05-21T18:14:34.088Z,19.73
2019-05-21T18:17:04.250Z,15.43
2019-05-21T18:19:33.585Z,18.80
2019-05-21T18:22:02.116Z,17.00
2019-05-21T18:24:30.824Z,18.13
2019-05-21T18:26:59.323Z,17.47
2019-05-21T18:29:27.751Z,16.53
2019-05-21T18:31:56.191Z,17.10
2019-05-21T18:34:24.610Z,16.47
2019-05-21T18:36:53.521Z,16.10
2019-05-21T18:39:22.417Z,16.57
2019-05-21T18:41:50.969Z,15.23
2019-05-21T18:44:19.573Z,14.40
2019-05-21T18:46:48.053Z,16.60
2019-05-21T18:49:16.515Z,17.53
2019-05-21T18:51:44.943Z,18.87
2019-05-21T18:54:13.413Z,17.03
2019-05-21T18:56:41.877Z,20.47
2019-05-21T18:59:10.631Z,20.10
2019-05-21T19:01:39.056Z,22.37
2019-05-21T19:04:07.555Z,23.57
2019-05-21T19:06:36.061Z,22.67
2019-05-21T19:09:06.444Z,22.43
2019-05-21T19:11:36.432Z,24.07
2019-05-21T19:14:05.084Z,23.63
2019-05-21T19:16:33.556Z,25.17
2019-05-21T19:19:03.656Z,27.33
2019-05-21T19:21:32.154Z,27.50
2019-05-21T19:24:00.711Z,26.60
2019-05-21T19:26:29.195Z,26.40
2019-05-21T19:28:57.738Z,26.73
2019-05-21T19:31:26.259Z,26.67
2019-05-21T19:33:54.708Z,26.20
2019-05-21T19:36:23.166Z,25.83
2019-05-21T19:38:51.585Z,27.63
2019-05-21T19:41:20.178Z,29.30
2019-05-21T19:43:48.652Z,26.63
2019-05-21T19:46:17.141Z,28.20
2019-05-21T19:48:45.575Z,25.30
2019-05-21T19:51:14.205Z,26.93
2019-05-21T19:53:42.626Z,25.53
2019-05-21T19:56:11.132Z,26.30
2019-05-21T19:58:39.583Z,30.33
2019-05-21T20:01:09.727Z,27.60
2019-05-21T20:03:39.294Z,26.33
2019-05-21T20:06:09.716Z,22.70
2019-05-21T20:08:38.360Z,31.30
2019-05-21T20:11:07.545Z,26.43
2019-05-21T20:13:35.955Z,27.17
2019-05-21T20:16:06.100Z,24.07
2019-05-21T20:18:34.808Z,29.77
2019-05-21T20:21:04.751Z,27.77
2019-05-21T20:23:33.749Z,24.27
2019-05-21T20:26:03.005Z,25.83
2019-05-21T20:28:31.799Z,25.17
2019-05-21T20:31:00.789Z,28.27
2019-05-21T20:33:31.233Z,26.00
2019-05-21T20:36:00.625Z,27.30
2019-05-21T20:38:29.963Z,31.20
2019-05-21T20:40:59.398Z,31.97
2019-05-21T20:43:28.071Z,29.00
2019-05-21T20:45:56.831Z,29.90
2019-05-21T20:48:27.009Z,27.40
2019-05-21T20:51:02.737Z,29.63
2019-05-21T20:53:31.569Z,29.80
2019-05-21T20:56:00.150Z,31.50
2019-05-21T20:58:29.150Z,33.13
2019-05-21T21:01:02.107Z,33.80
2019-05-21T21:03:31.658Z,34.57
2019-05-21T21:06:00.733Z,33.77
2019-05-21T21:08:31.334Z,33.00
2019-05-21T21:11:01.266Z,40.03
2019-05-21T21:13:29.875Z,38.83
2019-05-21T21:15:58.660Z,37.20
2019-05-21T21:18:28.525Z,33.97
2019-05-21T21:20:57.028Z,37.47
2019-05-21T21:23:27.082Z,38.47
2019-05-21T21:25:56.361Z,38.17
2019-05-21T21:28:24.973Z,40.70
2019-05-21T21:30:54.862Z,48.73
2019-05-21T21:33:23.714Z,45.23
2019-05-21T21:35:53.017Z,47.33
2019-05-21T21:38:23.791Z,46.67
2019-05-21T21:40:52.278Z,44.43
2019-05-21T21:43:20.793Z,54.80
2019-05-21T21:45:49.280Z,42.97
2019-05-21T21:48:17.742Z,43.43
2019-05-21T21:50:46.516Z,46.20
2019-05-21T21:53:14.967Z,49.33
2019-05-21T21:55:43.397Z,43.10
2019-05-21T21:58:11.835Z,44.37
2019-05-21T22:00:56.889Z,41.17
2019-05-21T22:03:26.948Z,44.10
2019-05-21T22:05:55.611Z,37.47
2019-05-21T22:08:24.118Z,42.93
2019-05-21T22:10:52.634Z,40.53
2019-05-21T22:13:21.058Z,39.07
2019-05-21T22:15:49.591Z,35.30
2019-05-21T22:18:19.071Z,35.87
2019-05-21T22:20:48.225Z,37.27
2019-05-21T22:23:17.677Z,38.33
2019-05-21T22:25:47.031Z,37.30
2019-05-21T22:28:15.528Z,34.37
2019-05-21T22:30:45.006Z,36.53
2019-05-21T22:33:14.268Z,36.37
2019-05-21T22:35:43.061Z,36.57
2019-05-21T22:38:11.942Z,44.83
2019-05-21T22:40:40.436Z,44.50
2019-05-21T22:43:08.970Z,50.90
2019-05-21T22:45:37.454Z,46.07
2019-05-21T22:48:05.971Z,54.23
2019-05-21T22:50:35.453Z,50.17
2019-05-21T22:53:04.031Z,44.17
2019-05-21T22:55:33.813Z,45.40
2019-05-21T22:58:02.334Z,47.13
2019-05-21T23:00:32.655Z,46.10
2019-05-21T23:03:02.281Z,43.63
2019-05-21T23:05:30.798Z,44.73
2019-05-21T23:08:00.510Z,43.20
2019-05-21T23:10:29.098Z,47.27
2019-05-21T23:12:57.542Z,40.57
2019-05-21T23:15:25.960Z,45.17
2019-05-21T23:17:55.364Z,41.07
2019-05-21T23:20:25.441Z,40.07
2019-05-21T23:22:55.634Z,41.17
2019-05-21T23:25:24.085Z,44.50
2019-05-21T23:27:53.080Z,36.83
2019-05-21T23:30:22.102Z,46.97
2019-05-21T23:32:50.928Z,41.50
2019-05-21T23:35:19.715Z,46.67
2019-05-21T23:37:51.571Z,45.03
2019-05-21T23:40:22.042Z,44.53
2019-05-21T23:42:50.481Z,42.80
2019-05-21T23:45:20.062Z,42.37
2019-05-21T23:47:49.188Z,43.60
2019-05-21T23:50:19.806Z,41.30
2019-05-21T23:52:49.473Z,40.90
2019-05-21T23:55:17.993Z,45.40
2019-05-21T23:57:48.474Z,43.67
